LOB4629 KGSO-KBOS
Flight info
| Callsign | LOB4629 |
|---|---|
| Flight time | N/A |
| Altitude | 33000 |
| Route | JEANY1 MCDON DORRN BROSS Q419 JFK ROBUC3 |
| Aircraft | B77L/H-SDE1E2E3FGHIJ2J3J4J5M1RWXY/LB1D1 |
Departure
| Time | 2026-05-03 22:39 |
|---|---|
| Airport | Piedmont Triad International Airport (KGSO) |
Arrival
| Time | N/A |
|---|---|
| Airport | Boston Logan International Airport (KBOS) |
| Time | Latitude | Longitude | Altitude | Speed | Heading |
|---|---|---|---|---|---|
| 2026-05-03 22:20 | 36.10973 | -79.92657 | 948 ft | 0 kts | 277° |
| 2026-05-03 22:28 | 36.10973 | -79.92656 | 945 ft | 2 kts | 277° |
| 2026-05-03 22:28 | 36.10971 | -79.92636 | 948 ft | 2 kts | 277° |
| 2026-05-03 22:29 | 36.10969 | -79.92617 | 945 ft | 2 kts | 273° |
| 2026-05-03 22:29 | 36.10969 | -79.92597 | 944 ft | 2 kts | 258° |
| 2026-05-03 22:29 | 36.10974 | -79.92578 | 945 ft | 2 kts | 244° |
| 2026-05-03 22:29 | 36.10981 | -79.92560 | 945 ft | 2 kts | 244° |
| 2026-05-03 22:30 | 36.10988 | -79.92542 | 945 ft | 2 kts | 240° |
| 2026-05-03 22:30 | 36.10995 | -79.92528 | 945 ft | 0 kts | 230° |
| 2026-05-03 22:33 | 36.10993 | -79.92532 | 945 ft | 3 kts | 230° |
| 2026-05-03 22:33 | 36.10943 | -79.92591 | 946 ft | 15 kts | 220° |
| 2026-05-03 22:34 | 36.10868 | -79.92681 | 946 ft | 15 kts | 225° |
| 2026-05-03 22:34 | 36.10800 | -79.92767 | 947 ft | 12 kts | 227° |
| 2026-05-03 22:34 | 36.10808 | -79.92863 | 942 ft | 13 kts | 311° |
| 2026-05-03 22:34 | 36.10874 | -79.92943 | 939 ft | 14 kts | 316° |
| 2026-05-03 22:35 | 36.10947 | -79.93031 | 935 ft | 16 kts | 316° |
| 2026-05-03 22:35 | 36.11031 | -79.93131 | 932 ft | 18 kts | 315° |
| 2026-05-03 22:35 | 36.11127 | -79.93247 | 923 ft | 21 kts | 315° |
| 2026-05-03 22:35 | 36.11237 | -79.93376 | 913 ft | 23 kts | 318° |
| 2026-05-03 22:36 | 36.11356 | -79.93515 | 907 ft | 24 kts | 315° |
| 2026-05-03 22:36 | 36.11459 | -79.93638 | 904 ft | 18 kts | 316° |
| 2026-05-03 22:36 | 36.11505 | -79.93692 | 903 ft | 0 kts | 316° |
| 2026-05-03 22:37 | 36.11508 | -79.93695 | 903 ft | 4 kts | 316° |
| 2026-05-03 22:37 | 36.11548 | -79.93743 | 904 ft | 9 kts | 316° |
| 2026-05-03 22:37 | 36.11571 | -79.93808 | 904 ft | 9 kts | 252° |
| 2026-05-03 22:38 | 36.11512 | -79.93889 | 906 ft | 23 kts | 225° |
| 2026-05-03 22:38 | 36.11245 | -79.94229 | 913 ft | 92 kts | 225° |
| 2026-05-03 22:38 | 36.10632 | -79.95007 | 936 ft | 158 kts | 226° |
| 2026-05-03 22:38 | 36.09755 | -79.96094 | 1210 ft | 184 kts | 225° |
| 2026-05-03 22:39 | 36.08863 | -79.97164 | 2149 ft | 178 kts | 226° |
| 2026-05-03 22:39 | 36.07943 | -79.98218 | 2875 ft | 181 kts | 225° |
| 2026-05-03 22:39 | 36.07043 | -79.99336 | 3396 ft | 188 kts | 228° |
| 2026-05-03 22:39 | 36.06112 | -80.00567 | 3719 ft | 203 kts | 229° |
| 2026-05-03 22:40 | 36.05170 | -80.01904 | 4274 ft | 206 kts | 234° |
| 2026-05-03 22:40 | 36.04477 | -80.03464 | 4892 ft | 207 kts | 251° |
| 2026-05-03 22:40 | 36.04308 | -80.05173 | 5571 ft | 203 kts | 281° |
| 2026-05-03 22:40 | 36.04930 | -80.06796 | 5875 ft | 221 kts | 311° |
| 2026-05-03 22:41 | 36.06227 | -80.07889 | 6348 ft | 234 kts | 340° |
| 2026-05-03 22:41 | 36.07857 | -80.07953 | 6924 ft | 244 kts | 14° |
| 2026-05-03 22:41 | 36.09423 | -80.06957 | 7277 ft | 266 kts | 37° |
| 2026-05-03 22:41 | 36.10648 | -80.05163 | 7709 ft | 279 kts | 56° |
| 2026-05-03 22:42 | 36.11612 | -80.03117 | 8538 ft | 277 kts | 57° |
| 2026-05-03 22:42 | 36.12552 | -80.00963 | 8974 ft | 292 kts | 58° |
| 2026-05-03 22:42 | 36.13520 | -79.98710 | 9580 ft | 300 kts | 57° |
| 2026-05-03 22:42 | 36.14536 | -79.96386 | 10232 ft | 307 kts | 56° |
| 2026-05-03 22:43 | 36.15600 | -79.94004 | 10543 ft | 328 kts | 56° |
| 2026-05-03 22:43 | 36.16760 | -79.91451 | 10714 ft | 352 kts | 56° |
| 2026-05-03 22:43 | 36.18008 | -79.88725 | 10903 ft | 376 kts | 56° |
| 2026-05-03 22:43 | 36.19326 | -79.85854 | 11375 ft | 390 kts | 56° |
| 2026-05-03 22:44 | 36.20681 | -79.82906 | 12033 ft | 399 kts | 57° |
| 2026-05-03 22:44 | 36.22065 | -79.79895 | 12822 ft | 405 kts | 57° |
| 2026-05-03 22:44 | 36.23467 | -79.76850 | 13645 ft | 410 kts | 57° |
| 2026-05-03 22:44 | 36.24892 | -79.73760 | 14372 ft | 416 kts | 57° |
| 2026-05-03 22:45 | 36.26333 | -79.70634 | 15112 ft | 420 kts | 57° |
| 2026-05-03 22:45 | 36.27788 | -79.67475 | 15852 ft | 425 kts | 57° |
| 2026-05-03 22:45 | 36.29261 | -79.64274 | 16562 ft | 430 kts | 57° |
| 2026-05-03 22:45 | 36.30749 | -79.61039 | 17269 ft | 435 kts | 57° |
| 2026-05-03 22:46 | 36.32251 | -79.57766 | 17981 ft | 439 kts | 57° |
| 2026-05-03 22:46 | 36.33768 | -79.54460 | 18633 ft | 444 kts | 57° |
| 2026-05-03 22:46 | 36.35307 | -79.51104 | 19193 ft | 450 kts | 57° |
| 2026-05-03 22:46 | 36.36864 | -79.47704 | 19728 ft | 456 kts | 57° |
| 2026-05-03 22:47 | 36.38437 | -79.44265 | 20261 ft | 461 kts | 56° |
| 2026-05-03 22:47 | 36.40033 | -79.40776 | 20780 ft | 468 kts | 56° |
| 2026-05-03 22:47 | 36.41740 | -79.37322 | 21270 ft | 472 kts | 51° |
| 2026-05-03 22:47 | 36.43727 | -79.34075 | 21826 ft | 472 kts | 44° |
| 2026-05-03 22:48 | 36.45938 | -79.31049 | 22381 ft | 475 kts | 41° |
| 2026-05-03 22:48 | 36.48186 | -79.28024 | 22939 ft | 480 kts | 41° |
| 2026-05-03 22:48 | 36.50459 | -79.24953 | 23481 ft | 485 kts | 41° |
| 2026-05-03 22:48 | 36.52739 | -79.21843 | 24035 ft | 488 kts | 42° |
| 2026-05-03 22:49 | 36.55021 | -79.18704 | 24520 ft | 491 kts | 42° |
| 2026-05-03 22:49 | 36.57317 | -79.15532 | 24999 ft | 495 kts | 42° |
| 2026-05-03 22:49 | 36.59630 | -79.12326 | 25426 ft | 500 kts | 42° |
| 2026-05-03 22:49 | 36.61963 | -79.09091 | 25856 ft | 504 kts | 42° |
| 2026-05-03 22:50 | 36.64281 | -79.05874 | 26293 ft | 508 kts | 42° |
| 2026-05-03 22:50 | 36.66650 | -79.02587 | 26688 ft | 512 kts | 42° |
| 2026-05-03 22:50 | 36.69052 | -78.99286 | 27097 ft | 516 kts | 41° |
| 2026-05-03 22:50 | 36.71529 | -78.96041 | 27533 ft | 518 kts | 39° |
| 2026-05-03 22:51 | 36.74087 | -78.92781 | 28044 ft | 520 kts | 39° |
| 2026-05-03 22:51 | 36.76600 | -78.89604 | 28478 ft | 523 kts | 39° |
| 2026-05-03 22:51 | 36.79163 | -78.86355 | 28837 ft | 527 kts | 39° |
| 2026-05-03 22:51 | 36.81736 | -78.83074 | 29203 ft | 531 kts | 39° |
| 2026-05-03 22:52 | 36.84314 | -78.79761 | 29641 ft | 533 kts | 39° |
| 2026-05-03 22:52 | 36.86888 | -78.76433 | 30190 ft | 532 kts | 39° |
| 2026-05-03 22:52 | 36.89447 | -78.73112 | 30678 ft | 530 kts | 39° |
| 2026-05-03 22:52 | 36.92002 | -78.69790 | 31145 ft | 529 kts | 39° |
| 2026-05-03 22:53 | 36.94551 | -78.66477 | 31590 ft | 530 kts | 39° |
| 2026-05-03 22:53 | 36.97107 | -78.63155 | 31975 ft | 530 kts | 39° |
| 2026-05-03 22:53 | 36.99663 | -78.59830 | 32388 ft | 530 kts | 39° |
| 2026-05-03 22:53 | 37.02212 | -78.56512 | 32795 ft | 529 kts | 39° |
| 2026-05-03 22:54 | 37.04799 | -78.53142 | 33125 ft | 530 kts | 39° |
| 2026-05-03 22:54 | 37.09935 | -78.46443 | 33066 ft | 532 kts | 39° |
| 2026-05-03 22:55 | 37.15023 | -78.39780 | 33117 ft | 527 kts | 39° |
| 2026-05-03 22:55 | 37.20096 | -78.33133 | 33056 ft | 528 kts | 39° |
| 2026-05-03 22:56 | 37.25170 | -78.26471 | 33051 ft | 528 kts | 39° |
| 2026-05-03 22:56 | 37.30238 | -78.19803 | 33061 ft | 528 kts | 39° |
| 2026-05-03 22:57 | 37.35306 | -78.13118 | 33062 ft | 528 kts | 39° |
| 2026-05-03 22:57 | 37.40341 | -78.06463 | 33060 ft | 529 kts | 39° |
| 2026-05-03 22:58 | 37.45405 | -77.99755 | 33060 ft | 529 kts | 39° |
| 2026-05-03 22:58 | 37.50506 | -77.92985 | 33075 ft | 529 kts | 39° |
| 2026-05-03 22:59 | 37.55658 | -77.86383 | 33065 ft | 526 kts | 35° |
| 2026-05-03 22:59 | 37.60970 | -77.80142 | 33084 ft | 526 kts | 34° |
| 2026-05-03 23:00 | 37.66345 | -77.73899 | 33073 ft | 525 kts | 34° |
| 2026-05-03 23:00 | 37.71700 | -77.67619 | 33074 ft | 525 kts | 34° |
| 2026-05-03 23:01 | 37.77031 | -77.61311 | 33077 ft | 525 kts | 34° |
| 2026-05-03 23:01 | 37.82352 | -77.54993 | 33068 ft | 525 kts | 34° |
| 2026-05-03 23:02 | 37.86772 | -77.49739 | 33066 ft | 525 kts | 34° |
| 2026-05-03 23:02 | 37.92093 | -77.43403 | 33065 ft | 525 kts | 34° |
| 2026-05-03 23:03 | 37.97415 | -77.37053 | 33087 ft | 526 kts | 34° |
| 2026-05-03 23:03 | 38.00092 | -77.33859 | 32687 ft | 530 kts | 38° |
| 2026-05-03 23:03 | 38.02780 | -77.30648 | 32887 ft | 533 kts | 38° |
| 2026-05-03 23:04 | 38.08231 | -77.24122 | 33089 ft | 545 kts | 38° |
| 2026-05-03 23:04 | 38.13824 | -77.17410 | 33057 ft | 561 kts | 38° |
| 2026-05-03 23:05 | 38.19568 | -77.10498 | 33112 ft | 576 kts | 38° |
| 2026-05-03 23:05 | 38.25407 | -77.03450 | 33067 ft | 582 kts | 39° |
| 2026-05-03 23:06 | 38.31299 | -76.96319 | 33065 ft | 585 kts | 39° |
| 2026-05-03 23:06 | 38.37204 | -76.89157 | 33054 ft | 586 kts | 39° |
| 2026-05-03 23:07 | 38.43110 | -76.81981 | 33050 ft | 586 kts | 38° |
| 2026-05-03 23:07 | 38.48996 | -76.74812 | 33044 ft | 584 kts | 38° |
| 2026-05-03 23:08 | 38.54858 | -76.67655 | 33051 ft | 582 kts | 38° |
| 2026-05-03 23:08 | 38.60691 | -76.60519 | 33081 ft | 580 kts | 38° |
| 2026-05-03 23:09 | 38.66476 | -76.53426 | 33054 ft | 580 kts | 38° |
| 2026-05-03 23:09 | 38.72284 | -76.46286 | 33028 ft | 578 kts | 38° |
| 2026-05-03 23:10 | 38.78072 | -76.39153 | 33087 ft | 577 kts | 38° |
| 2026-05-03 23:10 | 38.83857 | -76.32010 | 33034 ft | 578 kts | 38° |
| 2026-05-03 23:11 | 38.89639 | -76.24851 | 33041 ft | 578 kts | 39° |
| 2026-05-03 23:11 | 38.95418 | -76.17679 | 33038 ft | 578 kts | 39° |
| 2026-05-03 23:12 | 39.01198 | -76.10488 | 33053 ft | 579 kts | 39° |
| 2026-05-03 23:12 | 39.06977 | -76.03280 | 33035 ft | 578 kts | 39° |
| 2026-05-03 23:13 | 39.12747 | -75.96065 | 33033 ft | 578 kts | 39° |
| 2026-05-03 23:13 | 39.18512 | -75.88848 | 33049 ft | 577 kts | 38° |
| 2026-05-03 23:14 | 39.24509 | -75.82028 | 33026 ft | 573 kts | 33° |
| 2026-05-03 23:14 | 39.30632 | -75.75438 | 32993 ft | 572 kts | 33° |
| 2026-05-03 23:15 | 39.36709 | -75.68809 | 33068 ft | 571 kts | 34° |
| 2026-05-03 23:15 | 39.42757 | -75.62134 | 32989 ft | 572 kts | 34° |
| 2026-05-03 23:16 | 39.48812 | -75.55467 | 33020 ft | 571 kts | 34° |
| 2026-05-03 23:16 | 39.54857 | -75.48823 | 32994 ft | 570 kts | 34° |
| 2026-05-03 23:17 | 39.60895 | -75.42163 | 32998 ft | 570 kts | 34° |
| 2026-05-03 23:17 | 39.66923 | -75.35500 | 33000 ft | 569 kts | 34° |
| 2026-05-03 23:18 | 39.72938 | -75.28842 | 33000 ft | 568 kts | 34° |
| 2026-05-03 23:18 | 39.78909 | -75.22122 | 32993 ft | 569 kts | 37° |
| 2026-05-03 23:19 | 39.84297 | -75.14492 | 33009 ft | 574 kts | 45° |
| 2026-05-03 23:19 | 39.89457 | -75.06562 | 33497 ft | 574 kts | 44° |
| 2026-05-03 23:19 | 39.92001 | -75.02718 | 33316 ft | 560 kts | 43° |
| 2026-05-03 23:20 | 39.94515 | -74.98949 | 33155 ft | 543 kts | 43° |
| 2026-05-03 23:20 | 39.96930 | -74.95247 | 33042 ft | 529 kts | 46° |
| 2026-05-03 23:20 | 39.99063 | -74.91407 | 32992 ft | 517 kts | 51° |
| 2026-05-03 23:21 | 40.02972 | -74.83606 | 32984 ft | 518 kts | 51° |
| 2026-05-03 23:21 | 40.06978 | -74.75640 | 32987 ft | 530 kts | 51° |
| 2026-05-03 23:22 | 40.13079 | -74.63600 | 32966 ft | 530 kts | 51° |
| 2026-05-03 23:22 | 40.17136 | -74.55583 | 32954 ft | 527 kts | 51° |
| 2026-05-03 23:23 | 40.21686 | -74.48222 | 32952 ft | 515 kts | 40° |
| 2026-05-03 23:23 | 40.26988 | -74.42092 | 32959 ft | 506 kts | 32° |
| 2026-05-03 23:24 | 40.32497 | -74.36339 | 32959 ft | 506 kts | 32° |
| 2026-05-03 23:24 | 40.37975 | -74.30528 | 32953 ft | 507 kts | 33° |
| 2026-05-03 23:25 | 40.43429 | -74.24674 | 32927 ft | 508 kts | 33° |
| 2026-05-03 23:25 | 40.48895 | -74.18796 | 32949 ft | 508 kts | 33° |
| 2026-05-03 23:26 | 40.53986 | -74.12292 | 32928 ft | 520 kts | 49° |
| 2026-05-03 23:26 | 40.57317 | -74.03856 | 32933 ft | 531 kts | 70° |
| 2026-05-03 23:27 | 40.59341 | -73.94492 | 32931 ft | 533 kts | 71° |
| 2026-05-03 23:27 | 40.61426 | -73.85149 | 32928 ft | 532 kts | 70° |
| 2026-05-03 23:28 | 40.63967 | -73.76082 | 32920 ft | 523 kts | 54° |
| 2026-05-03 23:28 | 40.66190 | -73.72398 | 32931 ft | 508 kts | 40° |
| 2026-05-03 23:28 | 40.68656 | -73.69066 | 32924 ft | 509 kts | 40° |
| 2026-05-03 23:29 | 40.73413 | -73.62349 | 32868 ft | 491 kts | 42° |
| 2026-05-03 23:29 | 40.75693 | -73.59019 | 32453 ft | 487 kts | 43° |
| 2026-05-03 23:29 | 40.77939 | -73.55712 | 32022 ft | 482 kts | 43° |
| 2026-05-03 23:30 | 40.80165 | -73.52431 | 31591 ft | 477 kts | 43° |
| 2026-05-03 23:30 | 40.82373 | -73.49181 | 31145 ft | 473 kts | 42° |
| 2026-05-03 23:30 | 40.84563 | -73.45961 | 30694 ft | 469 kts | 42° |
| 2026-05-03 23:30 | 40.86736 | -73.42762 | 30256 ft | 465 kts | 42° |
| 2026-05-03 23:31 | 40.88885 | -73.39592 | 29791 ft | 462 kts | 42° |
| 2026-05-03 23:31 | 40.91015 | -73.36444 | 29279 ft | 458 kts | 42° |
| 2026-05-03 23:31 | 40.93128 | -73.33320 | 28817 ft | 453 kts | 42° |
| 2026-05-03 23:31 | 40.95212 | -73.30233 | 28375 ft | 448 kts | 42° |
| 2026-05-03 23:32 | 40.97277 | -73.27172 | 27955 ft | 443 kts | 42° |
| 2026-05-03 23:32 | 40.99318 | -73.24145 | 27497 ft | 439 kts | 42° |
| 2026-05-03 23:32 | 41.01339 | -73.21146 | 27072 ft | 435 kts | 42° |
| 2026-05-03 23:32 | 41.03344 | -73.18167 | 26642 ft | 431 kts | 42° |
| 2026-05-03 23:33 | 41.05329 | -73.15215 | 26224 ft | 427 kts | 42° |
| 2026-05-03 23:33 | 41.07299 | -73.12282 | 25809 ft | 424 kts | 42° |
| 2026-05-03 23:33 | 41.09251 | -73.09375 | 25400 ft | 421 kts | 42° |
| 2026-05-03 23:33 | 41.11188 | -73.06486 | 25001 ft | 417 kts | 42° |
| 2026-05-03 23:34 | 41.13107 | -73.03621 | 24595 ft | 414 kts | 42° |
| 2026-05-03 23:34 | 41.15014 | -73.00771 | 24221 ft | 411 kts | 42° |
| 2026-05-03 23:34 | 41.16908 | -72.97940 | 23814 ft | 409 kts | 42° |
| 2026-05-03 23:34 | 41.18786 | -72.95128 | 23405 ft | 407 kts | 42° |
| 2026-05-03 23:35 | 41.20655 | -72.92318 | 22969 ft | 404 kts | 43° |
| 2026-05-03 23:35 | 41.22239 | -72.89263 | 22909 ft | 402 kts | 56° |
| 2026-05-03 23:35 | 41.23521 | -72.85935 | 22748 ft | 406 kts | 58° |
| 2026-05-03 23:35 | 41.24754 | -72.82554 | 22640 ft | 408 kts | 59° |
| 2026-05-03 23:36 | 41.25971 | -72.79203 | 22539 ft | 408 kts | 59° |
| 2026-05-03 23:36 | 41.27230 | -72.75780 | 22443 ft | 407 kts | 58° |
| 2026-05-03 23:36 | 41.28487 | -72.72411 | 22351 ft | 406 kts | 58° |
| 2026-05-03 23:36 | 41.29733 | -72.69106 | 22271 ft | 405 kts | 58° |
| 2026-05-03 23:37 | 41.31013 | -72.65729 | 22151 ft | 403 kts | 58° |
| 2026-05-03 23:37 | 41.32261 | -72.62449 | 22074 ft | 402 kts | 58° |
| 2026-05-03 23:37 | 41.33519 | -72.59138 | 21974 ft | 400 kts | 57° |
| 2026-05-03 23:37 | 41.34774 | -72.55836 | 21865 ft | 399 kts | 57° |
| 2026-05-03 23:38 | 41.36022 | -72.52546 | 21791 ft | 398 kts | 57° |
| 2026-05-03 23:38 | 41.37266 | -72.49262 | 21686 ft | 397 kts | 57° |
| 2026-05-03 23:38 | 41.38503 | -72.45994 | 21550 ft | 394 kts | 58° |
| 2026-05-03 23:38 | 41.39731 | -72.42744 | 21205 ft | 392 kts | 57° |
| 2026-05-03 23:39 | 41.40946 | -72.39523 | 20717 ft | 386 kts | 58° |
| 2026-05-03 23:39 | 41.42148 | -72.36340 | 20040 ft | 384 kts | 57° |
| 2026-05-03 23:39 | 41.43343 | -72.33177 | 19392 ft | 381 kts | 58° |
| 2026-05-03 23:39 | 41.44526 | -72.30035 | 18878 ft | 376 kts | 58° |
| 2026-05-03 23:40 | 41.45683 | -72.26949 | 18709 ft | 372 kts | 57° |
| 2026-05-03 23:40 | 41.46854 | -72.23834 | 18527 ft | 380 kts | 58° |
| 2026-05-03 23:40 | 41.48042 | -72.20669 | 18309 ft | 382 kts | 58° |
| 2026-05-03 23:40 | 41.49211 | -72.17499 | 18067 ft | 379 kts | 58° |
| 2026-05-03 23:41 | 41.50357 | -72.14356 | 17832 ft | 374 kts | 58° |
| 2026-05-03 23:41 | 41.51480 | -72.11272 | 17630 ft | 370 kts | 58° |
| 2026-05-03 23:41 | 41.52603 | -72.08195 | 17429 ft | 367 kts | 58° |
| 2026-05-03 23:41 | 41.53718 | -72.05143 | 17241 ft | 365 kts | 58° |
| 2026-05-03 23:42 | 41.54812 | -72.02145 | 17049 ft | 364 kts | 58° |
| 2026-05-03 23:42 | 41.55913 | -71.99092 | 16868 ft | 367 kts | 60° |
| 2026-05-03 23:42 | 41.56891 | -71.95930 | 16758 ft | 369 kts | 63° |
| 2026-05-03 23:42 | 41.57830 | -71.92679 | 16626 ft | 372 kts | 64° |
| 2026-05-03 23:43 | 41.58760 | -71.89495 | 16427 ft | 373 kts | 63° |
| 2026-05-03 23:43 | 41.59728 | -71.86230 | 16228 ft | 372 kts | 63° |
| 2026-05-03 23:43 | 41.60675 | -71.83030 | 16006 ft | 368 kts | 63° |
| 2026-05-03 23:43 | 41.61605 | -71.79876 | 15819 ft | 363 kts | 63° |
| 2026-05-03 23:44 | 41.62526 | -71.76754 | 15606 ft | 360 kts | 63° |
| 2026-05-03 23:44 | 41.63442 | -71.73648 | 15429 ft | 358 kts | 63° |
| 2026-05-03 23:44 | 41.64351 | -71.70563 | 15235 ft | 356 kts | 63° |
| 2026-05-03 23:44 | 41.65255 | -71.67493 | 15060 ft | 355 kts | 63° |
| 2026-05-03 23:45 | 41.66158 | -71.64424 | 14869 ft | 354 kts | 63° |
| 2026-05-03 23:45 | 41.67055 | -71.61369 | 14680 ft | 351 kts | 63° |
| 2026-05-03 23:45 | 41.67936 | -71.58362 | 14501 ft | 344 kts | 63° |
| 2026-05-03 23:45 | 41.68800 | -71.55404 | 14301 ft | 338 kts | 63° |
| 2026-05-03 23:46 | 41.69655 | -71.52484 | 14142 ft | 337 kts | 63° |
| 2026-05-03 23:46 | 41.70509 | -71.49568 | 13957 ft | 337 kts | 63° |
| 2026-05-03 23:46 | 41.71364 | -71.46641 | 13799 ft | 338 kts | 63° |
| 2026-05-03 23:46 | 41.72220 | -71.43715 | 13606 ft | 338 kts | 62° |
| 2026-05-03 23:47 | 41.73221 | -71.40904 | 13410 ft | 332 kts | 54° |
| 2026-05-03 23:47 | 41.74390 | -71.38247 | 13220 ft | 330 kts | 52° |
| 2026-05-03 23:47 | 41.75570 | -71.35622 | 13043 ft | 329 kts | 53° |
| 2026-05-03 23:47 | 41.76725 | -71.32985 | 12856 ft | 328 kts | 53° |
| 2026-05-03 23:48 | 41.77864 | -71.30337 | 12686 ft | 327 kts | 54° |
| 2026-05-03 23:48 | 41.78989 | -71.27704 | 12515 ft | 325 kts | 54° |
| 2026-05-03 23:48 | 41.80108 | -71.25077 | 12344 ft | 324 kts | 54° |
| 2026-05-03 23:48 | 41.81221 | -71.22462 | 12159 ft | 322 kts | 54° |
| 2026-05-03 23:49 | 41.81955 | -71.20737 | 12084 ft | 320 kts | 53° |
| 2026-05-03 23:49 | 41.83056 | -71.18149 | 12043 ft | 320 kts | 53° |
| 2026-05-03 23:49 | 41.84157 | -71.15560 | 11986 ft | 321 kts | 54° |
| 2026-05-03 23:49 | 41.85276 | -71.12929 | 11618 ft | 323 kts | 54° |
| 2026-05-03 23:50 | 41.86376 | -71.10348 | 11394 ft | 316 kts | 53° |
| 2026-05-03 23:50 | 41.87462 | -71.07830 | 11202 ft | 307 kts | 53° |
| 2026-05-03 23:50 | 41.88525 | -71.05371 | 11027 ft | 304 kts | 53° |
| 2026-05-03 23:50 | 41.89589 | -71.02918 | 10885 ft | 304 kts | 53° |
| 2026-05-03 23:51 | 41.90652 | -71.00461 | 10723 ft | 304 kts | 53° |
| 2026-05-03 23:51 | 41.91713 | -70.98006 | 10559 ft | 304 kts | 53° |
| 2026-05-03 23:51 | 41.92769 | -70.95556 | 10403 ft | 304 kts | 53° |
| 2026-05-03 23:51 | 41.93827 | -70.93100 | 10231 ft | 303 kts | 53° |
| 2026-05-03 23:52 | 41.94872 | -70.90669 | 10067 ft | 297 kts | 53° |
| 2026-05-03 23:52 | 41.95890 | -70.88292 | 9870 ft | 289 kts | 53° |
| 2026-05-03 23:52 | 41.96884 | -70.85976 | 9734 ft | 284 kts | 53° |
| 2026-05-03 23:52 | 41.97868 | -70.83687 | 9577 ft | 282 kts | 53° |
| 2026-05-03 23:53 | 41.98851 | -70.81399 | 9415 ft | 282 kts | 53° |
| 2026-05-03 23:53 | 41.99829 | -70.79116 | 9284 ft | 282 kts | 53° |
| 2026-05-03 23:53 | 42.00807 | -70.76837 | 9124 ft | 281 kts | 53° |
| 2026-05-03 23:53 | 42.01923 | -70.74731 | 8984 ft | 273 kts | 42° |
| 2026-05-03 23:54 | 42.03204 | -70.72860 | 8846 ft | 271 kts | 39° |
| 2026-05-03 23:54 | 42.04503 | -70.71017 | 8710 ft | 272 kts | 40° |
| 2026-05-03 23:54 | 42.05792 | -70.69150 | 8564 ft | 273 kts | 40° |
| 2026-05-03 23:54 | 42.07072 | -70.67258 | 8417 ft | 274 kts | 41° |
| 2026-05-03 23:55 | 42.08352 | -70.65350 | 8281 ft | 275 kts | 41° |
| 2026-05-03 23:55 | 42.09630 | -70.63436 | 8121 ft | 276 kts | 41° |
| 2026-05-03 23:55 | 42.11035 | -70.61799 | 7938 ft | 259 kts | 18° |
| 2026-05-03 23:55 | 42.12703 | -70.61186 | 7833 ft | 245 kts | 1° |
| 2026-05-03 23:56 | 42.14409 | -70.60844 | 7725 ft | 249 kts | 2° |
| 2026-05-03 23:56 | 42.16106 | -70.60482 | 7598 ft | 245 kts | 2° |
| 2026-05-03 23:56 | 42.17759 | -70.60128 | 7468 ft | 235 kts | 2° |
| 2026-05-03 23:56 | 42.19332 | -70.59791 | 7254 ft | 224 kts | 2° |
| 2026-05-03 23:57 | 42.20849 | -70.59467 | 6987 ft | 218 kts | 1° |
| 2026-05-03 23:57 | 42.22335 | -70.59153 | 6652 ft | 215 kts | 2° |
| 2026-05-03 23:57 | 42.23801 | -70.58843 | 6285 ft | 213 kts | 2° |
| 2026-05-03 23:57 | 42.25261 | -70.58534 | 5985 ft | 213 kts | 1° |
| 2026-05-03 23:58 | 42.26760 | -70.58220 | 6018 ft | 221 kts | 2° |
| 2026-05-03 23:58 | 42.28267 | -70.57897 | 6030 ft | 217 kts | 2° |
| 2026-05-03 23:58 | 42.29745 | -70.57579 | 5974 ft | 213 kts | 2° |
| 2026-05-03 23:58 | 42.31187 | -70.57269 | 5966 ft | 209 kts | 1° |
| 2026-05-03 23:59 | 42.32627 | -70.56962 | 5963 ft | 210 kts | 2° |
| 2026-05-03 23:59 | 42.34055 | -70.56655 | 5955 ft | 205 kts | 2° |
| 2026-05-03 23:59 | 42.35449 | -70.56263 | 5980 ft | 206 kts | 8° |
| 2026-05-03 23:59 | 42.36829 | -70.55714 | 5972 ft | 207 kts | 9° |
| 2026-05-04 00:00 | 42.38192 | -70.55159 | 6003 ft | 203 kts | 8° |
| 2026-05-04 00:00 | 42.39538 | -70.54614 | 5974 ft | 201 kts | 9° |
| 2026-05-04 00:00 | 42.40869 | -70.54153 | 5952 ft | 191 kts | 356° |
| 2026-05-04 00:00 | 42.42047 | -70.54619 | 5975 ft | 176 kts | 316° |
| 2026-05-04 00:01 | 42.42640 | -70.56053 | 5904 ft | 185 kts | 281° |
| 2026-05-04 00:01 | 42.42636 | -70.57828 | 5591 ft | 190 kts | 271° |
| 2026-05-04 00:01 | 42.42535 | -70.59608 | 5324 ft | 188 kts | 270° |
| 2026-05-04 00:01 | 42.42419 | -70.61345 | 5083 ft | 183 kts | 269° |
| 2026-05-04 00:02 | 42.42245 | -70.63040 | 4862 ft | 181 kts | 266° |
| 2026-05-04 00:02 | 42.42008 | -70.64706 | 4661 ft | 185 kts | 264° |
| 2026-05-04 00:02 | 42.41733 | -70.66392 | 4434 ft | 180 kts | 263° |
| 2026-05-04 00:02 | 42.41246 | -70.69178 | 4008 ft | 164 kts | 262° |
| 2026-05-04 00:03 | 42.40746 | -70.71999 | 3721 ft | 146 kts | 263° |
| 2026-05-04 00:03 | 42.40253 | -70.74828 | 3460 ft | 166 kts | 263° |
| 2026-05-04 00:03 | 42.39705 | -70.77950 | 3005 ft | 170 kts | 262° |
| 2026-05-04 00:03 | 42.39176 | -70.80924 | 2508 ft | 154 kts | 262° |
| 2026-05-04 00:04 | 42.38720 | -70.83480 | 2139 ft | 121 kts | 263° |
| 2026-05-04 00:04 | 42.38320 | -70.85772 | 1962 ft | 135 kts | 263° |
| 2026-05-04 00:04 | 42.37846 | -70.88478 | 1660 ft | 156 kts | 262° |
| 2026-05-04 00:04 | 42.37341 | -70.91324 | 1199 ft | 153 kts | 261° |